sensor_id;sensor_type;location;lat;lon;timestamp;pressure;altitude;pressure_sealevel;temperature;humidity
52777;BME280;38656;54.260;20.822;2023-12-07T00:01:06;101644.69;;;11.72;48.76
52777;BME280;38656;54.260;20.822;2023-12-07T00:03:32;101641.31;;;12.36;47.54
52777;BME280;38656;54.260;20.822;2023-12-07T00:05:58;101639.50;;;12.75;45.31
52777;BME280;38656;54.260;20.822;2023-12-07T00:08:24;101640.59;;;12.34;46.25
52777;BME280;38656;54.260;20.822;2023-12-07T00:10:51;101642.38;;;13.35;44.83
52777;BME280;38656;54.260;20.822;2023-12-07T00:13:17;101634.03;;;13.15;44.36
52777;BME280;38656;54.260;20.822;2023-12-07T00:15:43;101637.72;;;13.25;44.76
52777;BME280;38656;54.260;20.822;2023-12-07T00:18:09;101639.94;;;12.69;44.51
52777;BME280;38656;54.260;20.822;2023-12-07T00:20:36;101645.03;;;12.85;45.56
52777;BME280;38656;54.260;20.822;2023-12-07T00:23:02;101643.94;;;11.97;46.18
52777;BME280;38656;54.260;20.822;2023-12-07T00:25:28;101640.81;;;13.92;43.26
52777;BME280;38656;54.260;20.822;2023-12-07T00:27:54;101638.91;;;14.52;41.39
52777;BME280;38656;54.260;20.822;2023-12-07T00:30:20;101630.88;;;14.18;41.47
52777;BME280;38656;54.260;20.822;2023-12-07T00:32:47;101627.38;;;14.06;42.04
52777;BME280;38656;54.260;20.822;2023-12-07T00:35:13;101631.50;;;12.38;44.41
52777;BME280;38656;54.260;20.822;2023-12-07T00:37:41;101634.75;;;13.78;43.35
52777;BME280;38656;54.260;20.822;2023-12-07T00:40:07;101636.25;;;13.70;42.50
52777;BME280;38656;54.260;20.822;2023-12-07T00:42:34;101652.59;;;13.15;43.81
52777;BME280;38656;54.260;20.822;2023-12-07T00:45:04;101647.06;;;13.18;42.97
52777;BME280;38656;54.260;20.822;2023-12-07T00:47:30;101647.81;;;13.57;43.17
52777;BME280;38656;54.260;20.822;2023-12-07T00:49:56;101651.19;;;13.22;43.75
52777;BME280;38656;54.260;20.822;2023-12-07T00:52:22;101642.44;;;13.09;44.08
52777;BME280;38656;54.260;20.822;2023-12-07T00:54:48;101639.31;;;13.15;43.68
52777;BME280;38656;54.260;20.822;2023-12-07T00:57:15;101646.50;;;12.76;44.60
52777;BME280;38656;54.260;20.822;2023-12-07T00:59:41;101642.66;;;13.06;44.36
52777;BME280;38656;54.260;20.822;2023-12-07T01:02:07;101648.56;;;13.09;44.32
52777;BME280;38656;54.260;20.822;2023-12-07T01:04:33;101639.53;;;12.49;45.28
52777;BME280;38656;54.260;20.822;2023-12-07T01:07:00;101651.69;;;12.90;45.12
52777;BME280;38656;54.260;20.822;2023-12-07T01:09:26;101647.34;;;12.89;44.50
52777;BME280;38656;54.260;20.822;2023-12-07T01:11:53;101649.50;;;12.84;44.67
52777;BME280;38656;54.260;20.822;2023-12-07T01:14:19;101655.63;;;11.80;46.03
52777;BME280;38656;54.260;20.822;2023-12-07T01:16:45;101653.97;;;12.45;46.21
52777;BME280;38656;54.260;20.822;2023-12-07T01:19:12;101657.19;;;11.70;47.58
52777;BME280;38656;54.260;20.822;2023-12-07T01:21:40;101656.69;;;12.31;46.87
52777;BME280;38656;54.260;20.822;2023-12-07T01:24:07;101654.81;;;12.46;46.95
52777;BME280;38656;54.260;20.822;2023-12-07T01:26:33;101656.81;;;12.42;47.36
52777;BME280;38656;54.260;20.822;2023-12-07T01:29:00;101645.78;;;11.82;48.07
52777;BME280;38656;54.260;20.822;2023-12-07T01:31:26;101655.50;;;11.27;50.69
52777;BME280;38656;54.260;20.822;2023-12-07T01:33:52;101648.63;;;12.07;47.87
52777;BME280;38656;54.260;20.822;2023-12-07T01:36:18;101657.94;;;12.25;48.38
52777;BME280;38656;54.260;20.822;2023-12-07T01:38:44;101647.50;;;12.36;48.30
52777;BME280;38656;54.260;20.822;2023-12-07T01:41:11;101637.91;;;12.85;46.49
52777;BME280;38656;54.260;20.822;2023-12-07T01:43:37;101636.44;;;13.18;45.58
52777;BME280;38656;54.260;20.822;2023-12-07T01:46:03;101645.03;;;12.46;46.27
52777;BME280;38656;54.260;20.822;2023-12-07T01:48:31;101636.00;;;13.24;45.15
52777;BME280;38656;54.260;20.822;2023-12-07T01:50:58;101636.09;;;12.99;46.29
52777;BME280;38656;54.260;20.822;2023-12-07T01:53:25;101637.00;;;12.61;46.47
52777;BME280;38656;54.260;20.822;2023-12-07T01:55:53;101629.34;;;12.17;47.78
52777;BME280;38656;54.260;20.822;2023-12-07T01:58:20;101636.16;;;12.47;47.22
52777;BME280;38656;54.260;20.822;2023-12-07T02:00:47;101639.03;;;12.57;48.10
52777;BME280;38656;54.260;20.822;2023-12-07T02:03:14;101632.78;;;12.45;46.34
52777;BME280;38656;54.260;20.822;2023-12-07T02:05:46;101636.09;;;12.09;48.63
52777;BME280;38656;54.260;20.822;2023-12-07T02:08:13;101632.44;;;12.37;48.59
52777;BME280;38656;54.260;20.822;2023-12-07T02:10:39;101630.44;;;12.41;47.55
52777;BME280;38656;54.260;20.822;2023-12-07T02:13:06;101631.91;;;12.45;47.43
52777;BME280;38656;54.260;20.822;2023-12-07T02:15:32;101635.06;;;12.11;48.75
52777;BME280;38656;54.260;20.822;2023-12-07T02:21:18;101631.41;;;13.63;45.45
52777;BME280;38656;54.260;20.822;2023-12-07T02:23:47;101633.81;;;12.55;46.84
52777;BME280;38656;54.260;20.822;2023-12-07T02:26:34;101635.69;;;12.92;47.26
52777;BME280;38656;54.260;20.822;2023-12-07T02:29:01;101634.22;;;12.49;48.89
52777;BME280;38656;54.260;20.822;2023-12-07T02:31:27;101641.81;;;13.05;47.01
52777;BME280;38656;54.260;20.822;2023-12-07T02:33:54;101637.63;;;13.14;46.43
52777;BME280;38656;54.260;20.822;2023-12-07T02:36:22;101645.69;;;12.50;48.64
52777;BME280;38656;54.260;20.822;2023-12-07T02:38:51;101644.69;;;12.77;46.77
52777;BME280;38656;54.260;20.822;2023-12-07T02:41:21;101644.00;;;11.56;49.65
52777;BME280;38656;54.260;20.822;2023-12-07T02:43:48;101643.44;;;12.82;46.77
52777;BME280;38656;54.260;20.822;2023-12-07T02:46:14;101648.25;;;12.51;48.30
52777;BME280;38656;54.260;20.822;2023-12-07T02:48:41;101649.09;;;12.65;47.74
52777;BME280;38656;54.260;20.822;2023-12-07T02:51:07;101651.03;;;13.00;47.21
52777;BME280;38656;54.260;20.822;2023-12-07T02:53:33;101649.28;;;13.61;45.18
52777;BME280;38656;54.260;20.822;2023-12-07T02:55:59;101650.13;;;12.49;48.80
52777;BME280;38656;54.260;20.822;2023-12-07T02:58:25;101646.03;;;13.08;46.55
52777;BME280;38656;54.260;20.822;2023-12-07T03:00:51;101640.81;;;12.31;48.41
52777;BME280;38656;54.260;20.822;2023-12-07T03:03:18;101640.16;;;12.01;50.42
52777;BME280;38656;54.260;20.822;2023-12-07T03:05:44;101646.34;;;13.03;47.62
52777;BME280;38656;54.260;20.822;2023-12-07T03:08:10;101644.41;;;12.81;47.03
52777;BME280;38656;54.260;20.822;2023-12-07T03:10:36;101635.56;;;13.31;47.61
52777;BME280;38656;54.260;20.822;2023-12-07T03:13:02;101639.75;;;12.46;48.66
52777;BME280;38656;54.260;20.822;2023-12-07T03:15:28;101642.47;;;12.06;49.58
52777;BME280;38656;54.260;20.822;2023-12-07T03:17:55;101654.19;;;12.42;48.09
52777;BME280;38656;54.260;20.822;2023-12-07T03:20:21;101655.53;;;12.61;48.43
52777;BME280;38656;54.260;20.822;2023-12-07T03:22:47;101658.94;;;13.25;47.54
52777;BME280;38656;54.260;20.822;2023-12-07T03:25:13;101657.34;;;12.47;47.80
52777;BME280;38656;54.260;20.822;2023-12-07T03:27:39;101662.84;;;12.70;48.93
52777;BME280;38656;54.260;20.822;2023-12-07T03:30:07;101662.38;;;13.02;46.83
52777;BME280;38656;54.260;20.822;2023-12-07T03:32:33;101672.00;;;13.66;45.65
52777;BME280;38656;54.260;20.822;2023-12-07T03:34:59;101669.72;;;13.48;45.44
52777;BME280;38656;54.260;20.822;2023-12-07T03:37:25;101667.31;;;13.56;45.45
52777;BME280;38656;54.260;20.822;2023-12-07T03:39:52;101669.84;;;12.71;47.58
52777;BME280;38656;54.260;20.822;2023-12-07T03:42:18;101668.53;;;12.25;50.14
52777;BME280;38656;54.260;20.822;2023-12-07T03:44:44;101672.25;;;13.00;47.44
52777;BME280;38656;54.260;20.822;2023-12-07T03:47:10;101677.00;;;12.04;50.64
52777;BME280;38656;54.260;20.822;2023-12-07T03:49:36;101671.31;;;12.49;50.12
52777;BME280;38656;54.260;20.822;2023-12-07T03:52:04;101669.44;;;12.51;49.87
52777;BME280;38656;54.260;20.822;2023-12-07T03:54:31;101673.06;;;13.63;46.22
52777;BME280;38656;54.260;20.822;2023-12-07T03:56:57;101671.09;;;13.04;47.53
52777;BME280;38656;54.260;20.822;2023-12-07T03:59:23;101671.50;;;14.54;43.99
52777;BME280;38656;54.260;20.822;2023-12-07T04:01:49;101667.09;;;14.66;43.61
52777;BME280;38656;54.260;20.822;2023-12-07T04:04:15;101674.53;;;13.67;45.95
52777;BME280;38656;54.260;20.822;2023-12-07T04:06:42;101675.91;;;13.23;47.29
52777;BME280;38656;54.260;20.822;2023-12-07T04:09:08;101673.44;;;14.41;44.98
52777;BME280;38656;54.260;20.822;2023-12-07T04:11:34;101666.97;;;12.87;48.99
52777;BME280;38656;54.260;20.822;2023-12-07T04:14:00;101667.47;;;11.87;50.86
52777;BME280;38656;54.260;20.822;2023-12-07T04:16:27;101669.94;;;12.95;48.32
52777;BME280;38656;54.260;20.822;2023-12-07T04:18:53;101675.03;;;13.48;47.32
52777;BME280;38656;54.260;20.822;2023-12-07T04:21:19;101670.69;;;14.42;45.49
52777;BME280;38656;54.260;20.822;2023-12-07T04:23:45;101667.22;;;14.87;42.96
52777;BME280;38656;54.260;20.822;2023-12-07T04:26:12;101667.81;;;14.10;44.27
52777;BME280;38656;54.260;20.822;2023-12-07T04:28:38;101680.56;;;14.40;45.08
52777;BME280;38656;54.260;20.822;2023-12-07T04:31:05;101680.88;;;13.27;46.25
52777;BME280;38656;54.260;20.822;2023-12-07T04:33:31;101677.00;;;13.81;45.80
52777;BME280;38656;54.260;20.822;2023-12-07T04:35:57;101677.06;;;13.69;45.00
52777;BME280;38656;54.260;20.822;2023-12-07T04:38:23;101675.50;;;13.16;46.40
52777;BME280;38656;54.260;20.822;2023-12-07T04:40:49;101681.91;;;13.75;46.14
52777;BME280;38656;54.260;20.822;2023-12-07T04:43:16;101684.50;;;13.63;45.88
52777;BME280;38656;54.260;20.822;2023-12-07T04:45:42;101678.94;;;11.88;51.88
52777;BME280;38656;54.260;20.822;2023-12-07T04:48:08;101675.59;;;14.24;45.28
52777;BME280;38656;54.260;20.822;2023-12-07T04:50:34;101685.72;;;13.59;45.88
52777;BME280;38656;54.260;20.822;2023-12-07T04:53:00;101688.19;;;12.74;48.22
52777;BME280;38656;54.260;20.822;2023-12-07T04:55:27;101681.97;;;14.33;45.15
52777;BME280;38656;54.260;20.822;2023-12-07T04:57:53;101682.78;;;14.11;44.60
52777;BME280;38656;54.260;20.822;2023-12-07T05:00:19;101679.81;;;12.54;50.55
52777;BME280;38656;54.260;20.822;2023-12-07T05:02:46;101685.97;;;13.68;46.51
52777;BME280;38656;54.260;20.822;2023-12-07T05:05:12;101686.69;;;13.70;46.56
52777;BME280;38656;54.260;20.822;2023-12-07T05:07:38;101696.56;;;13.80;45.95
52777;BME280;38656;54.260;20.822;2023-12-07T05:10:04;101691.38;;;13.29;47.63
52777;BME280;38656;54.260;20.822;2023-12-07T05:12:31;101684.91;;;12.57;48.42
52777;BME280;38656;54.260;20.822;2023-12-07T05:14:57;101692.03;;;13.33;47.82
52777;BME280;38656;54.260;20.822;2023-12-07T05:17:23;101689.88;;;12.75;48.31
52777;BME280;38656;54.260;20.822;2023-12-07T05:19:49;101687.56;;;13.46;47.43
52777;BME280;38656;54.260;20.822;2023-12-07T05:22:15;101687.44;;;12.46;49.97
52777;BME280;38656;54.260;20.822;2023-12-07T05:24:42;101687.84;;;13.04;47.57
52777;BME280;38656;54.260;20.822;2023-12-07T05:27:08;101692.53;;;13.75;47.59
52777;BME280;38656;54.260;20.822;2023-12-07T05:29:34;101685.63;;;12.85;49.14
52777;BME280;38656;54.260;20.822;2023-12-07T05:32:00;101690.94;;;13.48;48.06
52777;BME280;38656;54.260;20.822;2023-12-07T05:34:26;101695.06;;;12.89;48.38
52777;BME280;38656;54.260;20.822;2023-12-07T05:36:53;101687.56;;;13.46;47.50
52777;BME280;38656;54.260;20.822;2023-12-07T05:39:19;101685.81;;;13.82;47.23
52777;BME280;38656;54.260;20.822;2023-12-07T05:41:45;101689.69;;;13.89;46.25
52777;BME280;38656;54.260;20.822;2023-12-07T05:44:12;101688.03;;;14.35;45.01
52777;BME280;38656;54.260;20.822;2023-12-07T05:46:39;101682.47;;;13.43;47.12
52777;BME280;38656;54.260;20.822;2023-12-07T05:49:09;101686.78;;;13.07;47.40
52777;BME280;38656;54.260;20.822;2023-12-07T05:51:36;101677.25;;;14.14;46.30
52777;BME280;38656;54.260;20.822;2023-12-07T05:54:02;101687.59;;;13.81;46.40
52777;BME280;38656;54.260;20.822;2023-12-07T05:56:29;101686.47;;;13.73;46.40
52777;BME280;38656;54.260;20.822;2023-12-07T05:58:55;101692.19;;;13.55;46.10
52777;BME280;38656;54.260;20.822;2023-12-07T06:01:21;101696.22;;;13.85;47.43
52777;BME280;38656;54.260;20.822;2023-12-07T06:03:47;101695.13;;;13.14;47.00
52777;BME280;38656;54.260;20.822;2023-12-07T06:06:13;101697.22;;;12.59;50.34
52777;BME280;38656;54.260;20.822;2023-12-07T06:08:40;101700.56;;;13.12;48.56
52777;BME280;38656;54.260;20.822;2023-12-07T06:11:06;101688.84;;;13.40;47.75
52777;BME280;38656;54.260;20.822;2023-12-07T06:13:32;101698.59;;;13.27;48.06
52777;BME280;38656;54.260;20.822;2023-12-07T06:15:59;101699.41;;;13.53;47.16
52777;BME280;38656;54.260;20.822;2023-12-07T06:18:27;101700.25;;;12.39;52.67
52777;BME280;38656;54.260;20.822;2023-12-07T06:20:53;101702.16;;;13.52;47.53
52777;BME280;38656;54.260;20.822;2023-12-07T06:23:19;101715.19;;;13.05;50.05
52777;BME280;38656;54.260;20.822;2023-12-07T06:25:46;101710.34;;;12.73;50.35
52777;BME280;38656;54.260;20.822;2023-12-07T06:28:12;101717.41;;;13.24;49.12
52777;BME280;38656;54.260;20.822;2023-12-07T06:30:38;101717.13;;;13.03;48.76
52777;BME280;38656;54.260;20.822;2023-12-07T06:33:04;101719.91;;;13.51;48.89
52777;BME280;38656;54.260;20.822;2023-12-07T06:35:31;101713.91;;;13.23;48.55
52777;BME280;38656;54.260;20.822;2023-12-07T06:37:57;101721.41;;;14.15;46.52
52777;BME280;38656;54.260;20.822;2023-12-07T06:40:23;101725.41;;;12.98;48.98
52777;BME280;38656;54.260;20.822;2023-12-07T06:42:49;101721.53;;;13.15;48.19
52777;BME280;38656;54.260;20.822;2023-12-07T06:45:15;101724.81;;;13.32;49.21
52777;BME280;38656;54.260;20.822;2023-12-07T06:47:42;101729.75;;;13.86;47.62
52777;BME280;38656;54.260;20.822;2023-12-07T06:50:08;101730.78;;;13.72;47.96
52777;BME280;38656;54.260;20.822;2023-12-07T06:52:38;101732.81;;;13.06;48.06
52777;BME280;38656;54.260;20.822;2023-12-07T06:55:06;101744.38;;;13.68;47.45
52777;BME280;38656;54.260;20.822;2023-12-07T06:57:33;101744.25;;;12.42;49.04
52777;BME280;38656;54.260;20.822;2023-12-07T06:59:59;101743.97;;;14.45;46.42
52777;BME280;38656;54.260;20.822;2023-12-07T07:02:27;101744.94;;;14.08;45.88
52777;BME280;38656;54.260;20.822;2023-12-07T07:04:53;101750.19;;;13.36;48.18
52777;BME280;38656;54.260;20.822;2023-12-07T07:07:19;101756.69;;;14.88;45.04
52777;BME280;38656;54.260;20.822;2023-12-07T07:09:45;101744.00;;;13.61;45.55
52777;BME280;38656;54.260;20.822;2023-12-07T07:12:11;101748.84;;;14.15;46.29
52777;BME280;38656;54.260;20.822;2023-12-07T07:14:38;101749.47;;;12.82;48.33
52777;BME280;38656;54.260;20.822;2023-12-07T07:17:04;101748.66;;;13.57;47.40
52777;BME280;38656;54.260;20.822;2023-12-07T07:19:31;101748.28;;;13.38;47.85
52777;BME280;38656;54.260;20.822;2023-12-07T07:21:57;101738.72;;;13.72;47.31
52777;BME280;38656;54.260;20.822;2023-12-07T07:24:23;101744.00;;;13.61;48.39
52777;BME280;38656;54.260;20.822;2023-12-07T07:29:18;101748.47;;;14.80;44.63
52777;BME280;38656;54.260;20.822;2023-12-07T07:31:45;101747.88;;;13.92;46.10
52777;BME280;38656;54.260;20.822;2023-12-07T07:34:11;101748.91;;;13.28;47.83
52777;BME280;38656;54.260;20.822;2023-12-07T07:36:38;101742.09;;;13.50;47.91
52777;BME280;38656;54.260;20.822;2023-12-07T07:39:04;101748.84;;;13.67;47.23
52777;BME280;38656;54.260;20.822;2023-12-07T07:41:34;101746.53;;;14.11;47.34
52777;BME280;38656;54.260;20.822;2023-12-07T07:44:00;101750.38;;;13.45;49.10
52777;BME280;38656;54.260;20.822;2023-12-07T07:46:27;101752.88;;;12.18;52.12
52777;BME280;38656;54.260;20.822;2023-12-07T07:48:53;101751.47;;;13.43;50.34
52777;BME280;38656;54.260;20.822;2023-12-07T07:51:19;101756.81;;;13.91;48.76
52777;BME280;38656;54.260;20.822;2023-12-07T07:53:45;101747.31;;;13.76;47.78
52777;BME280;38656;54.260;20.822;2023-12-07T07:56:11;101752.97;;;13.95;48.70
52777;BME280;38656;54.260;20.822;2023-12-07T07:58:38;101752.34;;;12.66;51.66
52777;BME280;38656;54.260;20.822;2023-12-07T08:01:04;101759.84;;;14.22;49.08
52777;BME280;38656;54.260;20.822;2023-12-07T08:03:30;101755.72;;;13.70;48.81
52777;BME280;38656;54.260;20.822;2023-12-07T08:05:56;101758.13;;;14.69;46.46
52777;BME280;38656;54.260;20.822;2023-12-07T08:08:23;101759.84;;;12.85;50.32
52777;BME280;38656;54.260;20.822;2023-12-07T08:10:52;101759.13;;;13.72;49.12
52777;BME280;38656;54.260;20.822;2023-12-07T08:13:18;101758.44;;;14.29;48.02
52777;BME280;38656;54.260;20.822;2023-12-07T08:15:44;101758.22;;;14.68;46.25
52777;BME280;38656;54.260;20.822;2023-12-07T08:18:10;101760.09;;;14.19;45.86
52777;BME280;38656;54.260;20.822;2023-12-07T08:20:36;101750.22;;;13.10;50.86
52777;BME280;38656;54.260;20.822;2023-12-07T08:23:03;101748.56;;;12.43;54.60
52777;BME280;38656;54.260;20.822;2023-12-07T08:25:29;101747.13;;;12.78;54.95
52777;BME280;38656;54.260;20.822;2023-12-07T08:27:58;101758.09;;;13.98;50.29
52777;BME280;38656;54.260;20.822;2023-12-07T08:30:24;101750.75;;;14.13;48.18
52777;BME280;38656;54.260;20.822;2023-12-07T08:32:50;101756.28;;;13.62;51.15
52777;BME280;38656;54.260;20.822;2023-12-07T08:35:16;101752.97;;;13.95;49.99
52777;BME280;38656;54.260;20.822;2023-12-07T08:37:42;101759.28;;;13.32;52.68
52777;BME280;38656;54.260;20.822;2023-12-07T08:40:09;101761.72;;;14.68;48.26
52777;BME280;38656;54.260;20.822;2023-12-07T08:42:37;101759.09;;;15.36;46.84
52777;BME280;38656;54.260;20.822;2023-12-07T08:45:04;101762.06;;;13.80;48.68
52777;BME280;38656;54.260;20.822;2023-12-07T08:47:30;101761.34;;;13.78;49.67
52777;BME280;38656;54.260;20.822;2023-12-07T08:49:57;101764.28;;;13.49;51.37
52777;BME280;38656;54.260;20.822;2023-12-07T08:52:23;101764.72;;;14.28;48.67
52777;BME280;38656;54.260;20.822;2023-12-07T08:54:50;101765.22;;;14.33;48.86
52777;BME280;38656;54.260;20.822;2023-12-07T08:57:18;101752.69;;;13.87;50.05
52777;BME280;38656;54.260;20.822;2023-12-07T08:59:44;101760.81;;;13.73;50.14
52777;BME280;38656;54.260;20.822;2023-12-07T09:02:10;101755.63;;;13.95;50.21
52777;BME280;38656;54.260;20.822;2023-12-07T09:04:37;101757.28;;;13.85;51.08
52777;BME280;38656;54.260;20.822;2023-12-07T09:07:05;101761.09;;;13.44;51.03
52777;BME280;38656;54.260;20.822;2023-12-07T09:09:32;101759.44;;;13.17;52.81
52777;BME280;38656;54.260;20.822;2023-12-07T09:11:58;101756.81;;;13.91;49.78
52777;BME280;38656;54.260;20.822;2023-12-07T09:14:25;101757.78;;;15.31;47.98
52777;BME280;38656;54.260;20.822;2023-12-07T09:16:52;101766.22;;;12.17;56.46
52777;BME280;38656;54.260;20.822;2023-12-07T09:19:20;101767.03;;;13.85;51.08
52777;BME280;38656;54.260;20.822;2023-12-07T09:21:46;101766.44;;;13.68;51.42
52777;BME280;38656;54.260;20.822;2023-12-07T09:24:13;101769.25;;;14.50;49.46
52777;BME280;38656;54.260;20.822;2023-12-07T09:26:39;101765.38;;;13.84;52.52
52777;BME280;38656;54.260;20.822;2023-12-07T09:29:06;101767.47;;;14.27;48.42
52777;BME280;38656;54.260;20.822;2023-12-07T09:31:32;101773.56;;;14.05;49.77
52777;BME280;38656;54.260;20.822;2023-12-07T09:33:58;101773.84;;;13.76;51.01
52777;BME280;38656;54.260;20.822;2023-12-07T09:36:24;101765.91;;;12.62;54.19
52777;BME280;38656;54.260;20.822;2023-12-07T09:38:53;101763.31;;;13.50;52.80
52777;BME280;38656;54.260;20.822;2023-12-07T09:41:19;101768.75;;;14.69;48.95
52777;BME280;38656;54.260;20.822;2023-12-07T09:43:46;101768.28;;;14.76;47.77
52777;BME280;38656;54.260;20.822;2023-12-07T09:46:13;101770.19;;;14.74;48.17
52777;BME280;38656;54.260;20.822;2023-12-07T09:48:43;101773.19;;;14.33;48.46
52777;BME280;38656;54.260;20.822;2023-12-07T09:51:11;101767.59;;;13.77;50.73
52777;BME280;38656;54.260;20.822;2023-12-07T09:53:39;101770.97;;;14.51;47.92
52777;BME280;38656;54.260;20.822;2023-12-07T09:56:06;101763.69;;;13.70;51.06
52777;BME280;38656;54.260;20.822;2023-12-07T09:58:32;101760.94;;;14.55;48.51
52777;BME280;38656;54.260;20.822;2023-12-07T10:00:58;101759.56;;;14.38;49.38
52777;BME280;38656;54.260;20.822;2023-12-07T10:03:25;101759.75;;;14.59;47.13
52777;BME280;38656;54.260;20.822;2023-12-07T10:06:00;101758.38;;;15.46;45.80
52777;BME280;38656;54.260;20.822;2023-12-07T10:08:28;101758.97;;;13.86;47.40
52777;BME280;38656;54.260;20.822;2023-12-07T10:11:13;101763.25;;;14.60;48.27
52777;BME280;38656;54.260;20.822;2023-12-07T10:13:40;101757.38;;;14.67;46.85
52777;BME280;38656;54.260;20.822;2023-12-07T10:16:11;101761.06;;;15.12;46.71
52777;BME280;38656;54.260;20.822;2023-12-07T10:18:38;101758.94;;;14.34;47.59
52777;BME280;38656;54.260;20.822;2023-12-07T10:21:07;101748.81;;;16.09;44.43
52777;BME280;38656;54.260;20.822;2023-12-07T10:23:34;101750.41;;;14.89;47.24
52777;BME280;38656;54.260;20.822;2023-12-07T10:26:01;101745.31;;;15.43;44.94
52777;BME280;38656;54.260;20.822;2023-12-07T10:28:28;101740.72;;;15.45;44.86
52777;BME280;38656;54.260;20.822;2023-12-07T10:30:54;101750.53;;;15.33;44.69
52777;BME280;38656;54.260;20.822;2023-12-07T10:33:22;101738.75;;;15.81;44.51
52777;BME280;38656;54.260;20.822;2023-12-07T10:35:49;101733.16;;;15.84;43.38
52777;BME280;38656;54.260;20.822;2023-12-07T10:38:15;101723.56;;;15.15;45.19
52777;BME280;38656;54.260;20.822;2023-12-07T10:40:41;101736.72;;;15.05;45.34
52777;BME280;38656;54.260;20.822;2023-12-07T10:43:08;101726.25;;;15.70;44.90
52777;BME280;38656;54.260;20.822;2023-12-07T10:45:35;101729.69;;;14.34;46.62
52777;BME280;38656;54.260;20.822;2023-12-07T10:48:08;101724.75;;;15.45;44.84
52777;BME280;38656;54.260;20.822;2023-12-07T10:50:36;101721.75;;;14.81;46.99
52777;BME280;38656;54.260;20.822;2023-12-07T10:53:24;101724.88;;;14.98;45.41
52777;BME280;38656;54.260;20.822;2023-12-07T10:55:56;101719.19;;;15.36;44.57
52777;BME280;38656;54.260;20.822;2023-12-07T10:58:25;101718.88;;;15.73;43.92
52777;BME280;38656;54.260;20.822;2023-12-07T11:00:55;101726.16;;;15.60;44.04
52777;BME280;38656;54.260;20.822;2023-12-07T11:03:23;101720.78;;;15.05;44.23
52777;BME280;38656;54.260;20.822;2023-12-07T11:05:50;101718.97;;;16.16;43.73
52777;BME280;38656;54.260;20.822;2023-12-07T11:08:28;101717.63;;;15.22;43.60
52777;BME280;38656;54.260;20.822;2023-12-07T11:11:04;101714.25;;;15.87;44.53
52777;BME280;38656;54.260;20.822;2023-12-07T11:13:36;101722.56;;;16.26;43.78
52777;BME280;38656;54.260;20.822;2023-12-07T11:16:04;101726.22;;;14.69;45.99
52777;BME280;38656;54.260;20.822;2023-12-07T11:18:30;101713.91;;;14.80;47.34
52777;BME280;38656;54.260;20.822;2023-12-07T11:20:57;101716.31;;;16.58;42.63
52777;BME280;38656;54.260;20.822;2023-12-07T11:23:23;101728.13;;;14.67;45.68
52777;BME280;38656;54.260;20.822;2023-12-07T11:25:53;101712.66;;;15.29;46.45
52777;BME280;38656;54.260;20.822;2023-12-07T11:28:37;101717.28;;;16.57;43.60
52777;BME280;38656;54.260;20.822;2023-12-07T11:31:07;101716.91;;;15.32;44.87
52777;BME280;38656;54.260;20.822;2023-12-07T11:33:33;101713.63;;;14.36;47.31
52777;BME280;38656;54.260;20.822;2023-12-07T11:36:03;101718.97;;;14.94;46.51
52777;BME280;38656;54.260;20.822;2023-12-07T11:38:30;101718.97;;;14.94;46.36
52777;BME280;38656;54.260;20.822;2023-12-07T11:40:57;101715.38;;;14.48;46.38
52777;BME280;38656;54.260;20.822;2023-12-07T11:46:01;101708.78;;;16.42;43.36
52777;BME280;38656;54.260;20.822;2023-12-07T11:48:29;101706.75;;;15.03;46.34
52777;BME280;38656;54.260;20.822;2023-12-07T11:53:28;101716.41;;;15.93;44.87
52777;BME280;38656;54.260;20.822;2023-12-07T11:56:01;101713.75;;;14.23;47.51
52777;BME280;38656;54.260;20.822;2023-12-07T11:58:29;101712.50;;;14.51;47.84
52777;BME280;38656;54.260;20.822;2023-12-07T12:00:56;101717.03;;;14.03;47.38
52777;BME280;38656;54.260;20.822;2023-12-07T12:03:26;101712.44;;;14.87;46.55
52777;BME280;38656;54.260;20.822;2023-12-07T12:05:53;101711.56;;;14.28;49.10
52777;BME280;38656;54.260;20.822;2023-12-07T12:08:21;101708.28;;;13.65;49.17
52777;BME280;38656;54.260;20.822;2023-12-07T12:10:48;101707.09;;;15.44;47.02
52777;BME280;38656;54.260;20.822;2023-12-07T12:13:16;101718.72;;;14.75;47.40
52777;BME280;38656;54.260;20.822;2023-12-07T12:15:43;101717.03;;;14.38;47.50
52777;BME280;38656;54.260;20.822;2023-12-07T12:18:09;101711.00;;;14.83;47.63
52777;BME280;38656;54.260;20.822;2023-12-07T12:20:40;101711.81;;;15.17;47.34
52777;BME280;38656;54.260;20.822;2023-12-07T12:23:06;101708.47;;;15.82;44.68
52777;BME280;38656;54.260;20.822;2023-12-07T12:25:33;101712.66;;;15.29;45.63
52777;BME280;38656;54.260;20.822;2023-12-07T12:28:03;101711.22;;;15.25;44.63
52777;BME280;38656;54.260;20.822;2023-12-07T12:30:31;101716.19;;;13.54;49.87
52777;BME280;38656;54.260;20.822;2023-12-07T12:32:58;101710.78;;;14.50;48.41
52777;BME280;38656;54.260;20.822;2023-12-07T12:35:26;101715.88;;;14.54;47.02
52777;BME280;38656;54.260;20.822;2023-12-07T12:37:52;101716.69;;;14.54;46.23
52777;BME280;38656;54.260;20.822;2023-12-07T12:40:23;101710.72;;;13.18;50.15
52777;BME280;38656;54.260;20.822;2023-12-07T12:42:52;101710.41;;;14.44;47.90
52777;BME280;38656;54.260;20.822;2023-12-07T12:45:19;101715.34;;;14.95;46.74
52777;BME280;38656;54.260;20.822;2023-12-07T12:47:47;101716.56;;;14.09;47.88
52777;BME280;38656;54.260;20.822;2023-12-07T12:50:35;101712.84;;;14.47;46.92